Cape Hatteras National Seash, North Carolina
Current Conditions -  °F | °C
As of 11:55 PM on Friday 19 Dec 2014 (Local Time) from KMQI Reporting Station
Clear Clear  
Wind Chill: 34°   Ceiling: Unl
Heat Index: 39°   Visibility: 10mi
Dew Point: 32°   Wind: 7mph
Humidity: 76%   Direction: 20°NNE
Pressure: 30.24"   Gusts: NA
Location:  35.8834°N, 75.6616°W
Report Text: KMQI 200455Z AUTO 02006KT 10SM CLR 04/00 A3024 RMK AO2 T00400001
Loading
Personal Weather Stations






























Interactive Weather Map New forecast layout! Learn more

10-Day Weather Forecast

Advertisements
Track Severe Weather on mobile